createdAt,value
2017-08-09T00:00:01.833Z,0.00
2017-08-09T00:01:01.861Z,0.00
2017-08-09T00:02:01.876Z,0.00
2017-08-09T00:03:01.910Z,0.00
2017-08-09T00:04:01.930Z,0.00
2017-08-09T00:05:01.951Z,0.00
2017-08-09T00:06:01.972Z,0.00
2017-08-09T00:07:01.996Z,0.00
2017-08-09T00:08:02.019Z,0.00
2017-08-09T00:09:02.174Z,0.00
2017-08-09T00:10:02.066Z,0.00
2017-08-09T00:11:02.095Z,0.00
2017-08-09T00:12:02.109Z,0.00
2017-08-09T00:13:02.136Z,0.00
2017-08-09T00:14:02.158Z,0.00
2017-08-09T00:15:02.190Z,0.00
2017-08-09T00:16:02.212Z,0.00
2017-08-09T00:17:02.233Z,0.00
2017-08-09T00:18:02.251Z,0.00
2017-08-09T00:19:02.279Z,0.00
2017-08-09T00:20:02.303Z,0.00
2017-08-09T00:21:02.321Z,0.00
2017-08-09T00:22:02.347Z,0.00
2017-08-09T00:23:02.370Z,0.00
2017-08-09T00:24:02.395Z,0.00
2017-08-09T00:25:02.417Z,0.00
2017-08-09T00:26:02.439Z,0.00
2017-08-09T00:27:02.469Z,0.00
2017-08-09T00:28:02.485Z,0.00
2017-08-09T00:29:02.520Z,0.00
2017-08-09T00:30:02.534Z,0.00
2017-08-09T00:31:02.557Z,0.00
2017-08-09T00:32:02.581Z,0.00
2017-08-09T00:33:02.603Z,0.00
2017-08-09T00:34:02.631Z,0.00
2017-08-09T00:35:02.649Z,0.00
2017-08-09T00:36:02.676Z,0.00
2017-08-09T00:37:02.697Z,0.00
2017-08-09T00:38:02.722Z,0.00
2017-08-09T00:39:02.750Z,0.00
2017-08-09T00:40:02.769Z,0.00
2017-08-09T00:41:02.794Z,0.00
2017-08-09T00:42:02.815Z,0.00
2017-08-09T00:43:02.838Z,0.00
2017-08-09T00:44:02.864Z,0.00
2017-08-09T00:45:02.887Z,0.00
2017-08-09T00:46:02.911Z,0.00
2017-08-09T00:47:02.933Z,0.00
2017-08-09T00:48:02.958Z,0.00
2017-08-09T00:49:02.980Z,0.00
2017-08-09T00:50:03.006Z,0.00
2017-08-09T00:51:03.024Z,0.00
2017-08-09T00:52:03.066Z,0.00
2017-08-09T00:53:03.071Z,0.00
2017-08-09T00:54:03.095Z,0.00
2017-08-09T00:55:03.123Z,0.00
2017-08-09T00:56:03.152Z,0.00
2017-08-09T00:57:03.168Z,0.00
2017-08-09T00:58:03.194Z,0.00
2017-08-09T00:59:03.360Z,0.00
2017-08-09T01:00:03.255Z,0.00
2017-08-09T01:01:03.260Z,0.00
2017-08-09T01:02:03.283Z,0.00
2017-08-09T01:03:03.308Z,0.00
2017-08-09T01:04:03.339Z,0.00
2017-08-09T01:05:03.353Z,0.00
2017-08-09T01:06:03.375Z,0.00
2017-08-09T01:07:03.421Z,0.00
2017-08-09T01:08:03.427Z,0.00
2017-08-09T01:09:03.447Z,0.00
2017-08-09T01:10:03.471Z,0.00
2017-08-09T01:11:03.494Z,0.00
2017-08-09T01:12:03.518Z,0.00
2017-08-09T01:13:03.541Z,0.00
2017-08-09T01:14:03.563Z,0.00
2017-08-09T01:15:03.586Z,0.00
2017-08-09T01:16:03.611Z,0.00
2017-08-09T01:17:03.634Z,0.00
2017-08-09T01:18:03.656Z,0.00
2017-08-09T01:19:03.686Z,0.00
2017-08-09T01:20:03.706Z,0.00
2017-08-09T01:21:03.728Z,0.00
2017-08-09T01:22:03.755Z,0.00
2017-08-09T01:23:03.779Z,0.00
2017-08-09T01:24:03.806Z,0.00
2017-08-09T01:25:03.822Z,0.00
2017-08-09T01:26:03.841Z,0.00
2017-08-09T01:27:03.867Z,0.00
2017-08-09T01:28:03.892Z,0.00
2017-08-09T01:29:03.917Z,0.00
2017-08-09T01:30:03.953Z,0.00
2017-08-09T01:31:03.964Z,0.00
2017-08-09T01:32:03.983Z,0.00
2017-08-09T01:33:04.010Z,0.00
2017-08-09T01:34:04.031Z,0.00
2017-08-09T01:35:04.053Z,0.00
2017-08-09T01:36:04.084Z,0.00
2017-08-09T01:37:04.109Z,0.00
2017-08-09T01:38:04.121Z,0.00
2017-08-09T01:39:04.147Z,0.00
2017-08-09T01:40:04.180Z,0.00
2017-08-09T01:41:04.194Z,0.00
2017-08-09T01:42:04.220Z,0.00
2017-08-09T01:43:04.241Z,0.00
2017-08-09T01:44:04.263Z,0.00
2017-08-09T01:45:04.291Z,0.00
2017-08-09T01:46:04.308Z,0.00
2017-08-09T01:47:04.337Z,0.00
2017-08-09T01:48:04.354Z,0.00
2017-08-09T01:49:04.381Z,0.00
2017-08-09T01:50:04.402Z,0.00
2017-08-09T01:51:04.424Z,0.00
2017-08-09T01:52:04.449Z,0.00
2017-08-09T01:53:04.471Z,0.00
2017-08-09T01:54:04.496Z,0.00
2017-08-09T01:55:04.520Z,0.00
2017-08-09T01:56:04.541Z,0.00
2017-08-09T01:57:04.568Z,0.00
2017-08-09T01:58:04.587Z,0.00
2017-08-09T01:59:04.611Z,0.00
2017-08-09T02:00:04.636Z,0.00
2017-08-09T02:01:04.659Z,0.00
2017-08-09T02:02:04.680Z,0.00
2017-08-09T02:03:04.705Z,0.00
2017-08-09T02:04:04.726Z,0.00
2017-08-09T02:05:04.752Z,0.00
2017-08-09T02:06:04.778Z,0.00
2017-08-09T02:07:04.795Z,0.00
2017-08-09T02:08:04.819Z,0.00
2017-08-09T02:09:04.844Z,0.00
2017-08-09T02:10:04.867Z,0.00
2017-08-09T02:11:04.895Z,0.00
2017-08-09T02:12:04.913Z,0.00
2017-08-09T02:13:04.939Z,0.00
2017-08-09T02:14:04.958Z,0.00
2017-08-09T02:15:05.006Z,0.00
2017-08-09T02:16:05.005Z,0.00
2017-08-09T02:17:05.029Z,0.00
2017-08-09T02:18:05.057Z,0.00
2017-08-09T02:19:05.076Z,0.00
2017-08-09T02:20:05.097Z,0.00
2017-08-09T02:21:05.120Z,0.00
2017-08-09T02:22:05.144Z,0.00
2017-08-09T02:23:05.169Z,0.00
2017-08-09T02:24:05.194Z,0.00
2017-08-09T02:25:05.216Z,0.00
2017-08-09T02:26:05.236Z,0.00
2017-08-09T02:27:05.263Z,0.00
2017-08-09T02:28:05.286Z,0.00
2017-08-09T02:29:05.305Z,0.00
2017-08-09T02:30:05.332Z,0.00
2017-08-09T02:31:05.357Z,0.00
2017-08-09T02:32:05.378Z,0.00
2017-08-09T02:33:05.398Z,0.00
2017-08-09T02:34:05.425Z,0.00
2017-08-09T02:35:05.444Z,0.00
2017-08-09T02:36:05.469Z,0.00
2017-08-09T02:37:05.492Z,0.00
2017-08-09T02:38:05.555Z,0.00
2017-08-09T02:39:05.539Z,0.00
2017-08-09T02:40:05.562Z,0.00
2017-08-09T02:41:05.583Z,0.00
2017-08-09T02:42:05.608Z,0.00
2017-08-09T02:43:05.629Z,0.00
2017-08-09T02:44:05.661Z,0.00
2017-08-09T02:45:05.681Z,0.00
2017-08-09T02:46:05.711Z,0.00
2017-08-09T02:47:05.724Z,0.00
2017-08-09T02:48:05.748Z,0.00
2017-08-09T02:49:05.771Z,0.00
2017-08-09T02:50:05.795Z,0.00
2017-08-09T02:51:05.815Z,0.00
2017-08-09T02:52:05.846Z,0.00
2017-08-09T02:53:05.861Z,0.00
2017-08-09T02:54:05.887Z,0.00
2017-08-09T02:55:05.909Z,0.00
2017-08-09T02:56:05.931Z,0.00
2017-08-09T02:57:05.953Z,0.00
2017-08-09T02:58:05.975Z,0.00
2017-08-09T02:59:06.001Z,0.00
2017-08-09T03:00:06.022Z,0.00
2017-08-09T03:01:06.063Z,0.00
2017-08-09T03:02:06.068Z,0.00
2017-08-09T03:03:06.093Z,0.00
2017-08-09T03:04:06.116Z,0.00
2017-08-09T03:05:06.141Z,0.00
2017-08-09T03:06:06.172Z,0.00
2017-08-09T03:07:06.194Z,0.00
2017-08-09T03:08:06.209Z,0.00
2017-08-09T03:09:06.229Z,0.00
2017-08-09T03:10:06.254Z,0.00
2017-08-09T03:11:06.286Z,0.00
2017-08-09T03:12:06.310Z,0.00
2017-08-09T03:13:06.326Z,0.00
2017-08-09T03:14:06.348Z,0.00
2017-08-09T03:15:06.381Z,0.00
2017-08-09T03:16:06.393Z,0.00
2017-08-09T03:17:06.424Z,0.00
2017-08-09T03:18:06.440Z,0.00
2017-08-09T03:19:06.460Z,0.00
2017-08-09T03:20:06.485Z,0.00
2017-08-09T03:21:06.506Z,0.00
2017-08-09T03:22:06.530Z,0.00
2017-08-09T03:23:06.554Z,0.00
2017-08-09T03:24:06.581Z,0.00
2017-08-09T03:25:06.601Z,0.00
2017-08-09T03:26:06.623Z,0.00
2017-08-09T03:27:06.653Z,0.00
2017-08-09T03:28:06.672Z,0.00
2017-08-09T03:29:06.694Z,0.00
2017-08-09T03:30:06.721Z,0.00
2017-08-09T03:31:06.742Z,0.00
2017-08-09T03:32:06.760Z,0.00
2017-08-09T03:33:06.786Z,0.00
2017-08-09T03:34:06.813Z,0.00
2017-08-09T03:35:06.829Z,0.00
2017-08-09T03:36:06.865Z,0.00
2017-08-09T03:37:06.880Z,4.00
2017-08-09T03:38:06.901Z,4.00
2017-08-09T03:39:06.927Z,4.00
2017-08-09T03:40:06.955Z,0.00
2017-08-09T03:41:06.972Z,4.00
2017-08-09T03:42:06.992Z,4.00
2017-08-09T03:43:07.016Z,8.00
2017-08-09T03:44:07.040Z,4.00
2017-08-09T03:45:07.060Z,8.00
2017-08-09T03:46:07.084Z,8.00
2017-08-09T03:47:07.111Z,12.00
2017-08-09T03:48:07.134Z,12.00
2017-08-09T03:49:07.166Z,16.00
2017-08-09T03:50:07.176Z,20.00
2017-08-09T03:51:07.201Z,28.00
2017-08-09T03:52:07.225Z,36.00
2017-08-09T03:53:07.248Z,44.00
2017-08-09T03:54:07.273Z,52.00
2017-08-09T03:55:07.292Z,56.00
2017-08-09T03:56:07.316Z,64.00
2017-08-09T03:57:07.346Z,72.00
2017-08-09T03:58:07.363Z,80.00
2017-08-09T03:59:07.399Z,88.00
2017-08-09T04:00:07.412Z,92.00
2017-08-09T04:01:07.434Z,100.00
2017-08-09T04:02:07.454Z,108.00
2017-08-09T04:03:07.478Z,116.00
2017-08-09T04:04:07.500Z,120.00
2017-08-09T04:05:07.532Z,132.00
2017-08-09T04:06:07.555Z,140.00
2017-08-09T04:07:07.573Z,152.00
2017-08-09T04:08:07.604Z,164.00
2017-08-09T04:09:07.618Z,168.00
2017-08-09T04:10:07.640Z,176.00
2017-08-09T04:11:07.664Z,176.00
2017-08-09T04:12:07.686Z,180.00
2017-08-09T04:13:07.717Z,184.00
2017-08-09T04:14:07.731Z,192.00
2017-08-09T04:15:07.761Z,208.00
2017-08-09T04:16:07.790Z,232.00
2017-08-09T04:17:07.804Z,244.00
2017-08-09T04:18:07.824Z,228.00
2017-08-09T04:19:07.850Z,220.00
2017-08-09T04:20:07.870Z,232.00
2017-08-09T04:21:07.900Z,260.00
2017-08-09T04:22:07.925Z,288.00
2017-08-09T04:23:07.947Z,316.00
2017-08-09T04:24:07.966Z,344.00
2017-08-09T04:25:07.991Z,364.00
2017-08-09T04:26:08.011Z,384.00
2017-08-09T04:27:08.039Z,404.00
2017-08-09T04:28:08.069Z,416.00
2017-08-09T04:29:08.081Z,432.00
2017-08-09T04:30:08.106Z,444.00
2017-08-09T04:31:08.129Z,460.00
2017-08-09T04:32:08.150Z,476.00
2017-08-09T04:33:08.171Z,492.00
2017-08-09T04:34:08.193Z,508.00
2017-08-09T04:35:08.219Z,528.00
2017-08-09T04:36:08.239Z,552.00
2017-08-09T04:37:08.265Z,572.00
2017-08-09T04:38:08.291Z,604.00
2017-08-09T04:39:08.308Z,636.00
2017-08-09T04:40:08.340Z,704.00
2017-08-09T04:41:08.360Z,800.00
2017-08-09T04:42:08.385Z,876.00
2017-08-09T04:43:08.529Z,968.00
2017-08-09T04:44:08.427Z,1092.00
2017-08-09T04:45:08.453Z,1184.00
2017-08-09T04:46:08.473Z,1272.00
2017-08-09T04:47:08.496Z,1356.00
2017-08-09T04:48:08.526Z,1440.00
2017-08-09T04:49:08.544Z,1512.00
2017-08-09T04:50:08.568Z,1580.00
2017-08-09T04:51:08.588Z,1616.00
2017-08-09T04:52:08.611Z,1656.00
2017-08-09T04:53:08.640Z,1708.00
2017-08-09T04:54:08.660Z,1764.00
2017-08-09T04:55:08.689Z,1836.00
2017-08-09T04:56:08.705Z,1940.00
2017-08-09T04:57:08.725Z,1996.00
2017-08-09T04:58:08.750Z,2012.00
2017-08-09T04:59:08.792Z,2028.00
2017-08-09T05:00:08.797Z,2100.00
2017-08-09T05:01:08.820Z,2180.00
2017-08-09T05:02:08.853Z,2256.00
2017-08-09T05:03:08.865Z,2300.00
2017-08-09T05:04:08.890Z,2384.00
2017-08-09T05:05:08.914Z,2496.00
2017-08-09T05:06:08.941Z,2576.00
2017-08-09T05:07:08.958Z,2640.00
2017-08-09T05:08:08.994Z,2704.00
2017-08-09T05:09:09.007Z,2740.00
2017-08-09T05:10:09.028Z,2792.00
2017-08-09T05:11:09.057Z,2848.00
2017-08-09T05:12:09.086Z,2888.00
2017-08-09T05:13:09.100Z,2924.00
2017-08-09T05:14:09.132Z,2936.00
2017-08-09T05:15:09.147Z,2972.00
2017-08-09T05:16:09.172Z,2964.00
2017-08-09T05:17:09.195Z,3016.00
2017-08-09T05:18:09.224Z,3116.00
2017-08-09T05:19:09.244Z,3220.00
2017-08-09T05:20:09.274Z,3272.00
2017-08-09T05:21:09.293Z,3288.00
2017-08-09T05:22:09.320Z,3240.00
2017-08-09T05:23:09.341Z,3240.00
2017-08-09T05:24:09.376Z,3268.00
2017-08-09T05:25:09.406Z,3368.00
2017-08-09T05:26:09.433Z,3408.00
2017-08-09T05:27:09.438Z,3512.00
2017-08-09T05:28:09.466Z,3672.00
2017-08-09T05:29:09.494Z,3988.00
2017-08-09T05:30:09.516Z,4248.00
2017-08-09T05:31:09.554Z,4332.00
2017-08-09T05:32:09.563Z,4756.00
2017-08-09T05:33:09.586Z,4932.00
2017-08-09T05:34:09.613Z,5040.00
2017-08-09T05:35:09.638Z,5268.00
2017-08-09T05:36:09.662Z,5256.00
2017-08-09T05:37:09.690Z,5084.00
2017-08-09T05:38:09.712Z,4892.00
2017-08-09T05:39:09.737Z,4668.00
2017-08-09T05:40:09.766Z,4176.00
2017-08-09T05:41:09.791Z,3536.00
2017-08-09T05:42:09.817Z,2796.00
2017-08-09T05:43:09.836Z,4228.00
2017-08-09T05:44:09.862Z,4292.00
2017-08-09T05:45:09.886Z,3976.00
2017-08-09T05:46:09.914Z,2756.00
2017-08-09T05:47:09.941Z,2968.00
2017-08-09T05:48:09.965Z,3200.00
2017-08-09T05:49:09.988Z,3508.00
2017-08-09T05:50:10.015Z,3776.00
2017-08-09T05:51:10.040Z,4612.00
2017-08-09T05:52:10.067Z,5060.00
2017-08-09T05:53:10.092Z,6324.00
2017-08-09T05:54:10.111Z,5940.00
2017-08-09T05:55:10.136Z,5324.00
2017-08-09T05:56:10.166Z,3664.00
2017-08-09T05:57:10.187Z,5076.00
2017-08-09T05:58:10.214Z,4940.00
2017-08-09T05:59:10.239Z,4760.00
2017-08-09T06:00:10.262Z,4836.00
2017-08-09T06:01:10.290Z,5000.00
2017-08-09T06:02:10.312Z,3784.00
2017-08-09T06:03:10.340Z,5152.00
2017-08-09T06:04:10.369Z,4900.00
2017-08-09T06:05:10.393Z,4788.00
2017-08-09T06:06:10.417Z,4884.00
2017-08-09T06:07:10.441Z,5336.00
2017-08-09T06:08:10.468Z,6024.00
2017-08-09T06:09:10.492Z,7440.00
2017-08-09T06:10:10.523Z,7980.00
2017-08-09T06:11:10.543Z,7416.00
2017-08-09T06:12:10.571Z,7040.00
2017-08-09T06:13:10.596Z,5620.00
2017-08-09T06:14:10.633Z,4476.00
2017-08-09T06:15:10.647Z,3408.00
2017-08-09T06:16:10.674Z,3180.00
2017-08-09T06:17:10.700Z,2784.00
2017-08-09T06:18:10.723Z,2388.00
2017-08-09T06:19:10.749Z,2324.00
2017-08-09T06:20:10.778Z,2096.00
2017-08-09T06:21:10.805Z,2204.00
2017-08-09T06:22:10.824Z,2052.00
2017-08-09T06:23:10.857Z,1736.00
2017-08-09T06:24:10.878Z,1680.00
2017-08-09T06:25:10.905Z,1784.00
2017-08-09T06:26:10.937Z,1636.00
2017-08-09T06:27:10.954Z,1740.00
2017-08-09T06:28:10.979Z,1396.00
2017-08-09T06:29:11.006Z,1364.00
2017-08-09T06:30:11.029Z,1540.00
2017-08-09T06:31:11.059Z,2036.00
2017-08-09T06:32:11.080Z,2624.00
2017-08-09T06:33:11.106Z,2752.00
2017-08-09T06:34:11.135Z,1824.00
2017-08-09T06:35:11.157Z,1240.00
2017-08-09T06:36:11.193Z,940.00
2017-08-09T06:37:11.213Z,840.00
2017-08-09T06:38:11.234Z,836.00
2017-08-09T06:39:11.259Z,892.00
2017-08-09T06:40:11.282Z,936.00
2017-08-09T06:41:11.312Z,1052.00
2017-08-09T06:42:11.330Z,1228.00
2017-08-09T06:43:11.359Z,1500.00
2017-08-09T06:44:11.384Z,1656.00
2017-08-09T06:45:11.408Z,1472.00
2017-08-09T06:46:11.449Z,1368.00
2017-08-09T06:47:11.462Z,1436.00
2017-08-09T06:48:11.506Z,1672.00
2017-08-09T06:49:11.512Z,1864.00
2017-08-09T06:50:11.532Z,1888.00
2017-08-09T06:51:11.558Z,1904.00
2017-08-09T06:52:11.594Z,1924.00
2017-08-09T06:53:11.609Z,2016.00
2017-08-09T06:54:11.643Z,2260.00
2017-08-09T06:55:11.658Z,2344.00
2017-08-09T06:56:11.686Z,2352.00
2017-08-09T06:57:11.722Z,2492.00
2017-08-09T06:58:11.750Z,2512.00
2017-08-09T06:59:11.768Z,2380.00
2017-08-09T07:00:11.788Z,2268.00
2017-08-09T07:01:11.811Z,2264.00
2017-08-09T07:02:11.844Z,2336.00
2017-08-09T07:03:11.868Z,2532.00
2017-08-09T07:04:11.899Z,3076.00
2017-08-09T07:05:11.910Z,3892.00
2017-08-09T07:06:11.935Z,4556.00
2017-08-09T07:07:11.958Z,5824.00
2017-08-09T07:08:11.990Z,4456.00
2017-08-09T07:09:12.015Z,4324.00
2017-08-09T07:10:12.056Z,4644.00
2017-08-09T07:11:12.066Z,5164.00
2017-08-09T07:12:12.084Z,5004.00
2017-08-09T07:13:12.114Z,7696.00
2017-08-09T07:14:12.138Z,5448.00
2017-08-09T07:15:12.172Z,5484.00
2017-08-09T07:16:12.189Z,6104.00
2017-08-09T07:17:12.212Z,6888.00
2017-08-09T07:18:12.242Z,9844.00
2017-08-09T07:19:12.265Z,10240.00
2017-08-09T07:20:12.299Z,10652.00
2017-08-09T07:21:12.328Z,10816.00
2017-08-09T07:22:12.346Z,10948.00
2017-08-09T07:23:12.366Z,11088.00
2017-08-09T07:24:12.396Z,11156.00
2017-08-09T07:25:12.419Z,11172.00
2017-08-09T07:26:12.445Z,10948.00
2017-08-09T07:27:12.476Z,11204.00
2017-08-09T07:28:12.506Z,10856.00
2017-08-09T07:29:12.533Z,11012.00
2017-08-09T07:30:12.550Z,11092.00
2017-08-09T07:31:12.577Z,11204.00
2017-08-09T07:32:12.601Z,10040.00
2017-08-09T07:33:12.633Z,9968.00
2017-08-09T07:34:12.655Z,9212.00
2017-08-09T07:35:12.685Z,8036.00
2017-08-09T07:36:12.710Z,8948.00
2017-08-09T07:37:12.744Z,7884.00
2017-08-09T07:38:12.761Z,7320.00
2017-08-09T07:39:12.796Z,8900.00
2017-08-09T07:40:12.813Z,10000.00
2017-08-09T07:41:12.842Z,9316.00
2017-08-09T07:42:12.864Z,9128.00
2017-08-09T07:43:12.892Z,7804.00
2017-08-09T07:44:12.917Z,8024.00
2017-08-09T07:45:12.941Z,7600.00
2017-08-09T07:46:12.967Z,7412.00
2017-08-09T07:47:12.997Z,7220.00
2017-08-09T07:48:13.020Z,7136.00
2017-08-09T07:49:13.046Z,8548.00
2017-08-09T07:50:13.074Z,20992.00
2017-08-09T07:51:13.103Z,33856.00
2017-08-09T07:52:13.127Z,36704.00
2017-08-09T07:53:13.152Z,35936.00
2017-08-09T07:54:13.177Z,36064.00
2017-08-09T07:55:13.203Z,36704.00
2017-08-09T07:56:13.247Z,14396.00
2017-08-09T07:57:13.254Z,30400.00
2017-08-09T07:58:13.283Z,16136.00
2017-08-09T07:59:13.350Z,30176.00
2017-08-09T08:00:13.333Z,30560.00
2017-08-09T08:01:13.360Z,36864.00
2017-08-09T08:02:13.383Z,36256.00
2017-08-09T08:03:13.410Z,36832.00
2017-08-09T08:04:13.440Z,35648.00
2017-08-09T08:05:13.468Z,35008.00
2017-08-09T08:06:13.487Z,17204.00
2017-08-09T08:07:13.513Z,4972.00
2017-08-09T08:08:13.538Z,36288.00
2017-08-09T08:09:13.564Z,36192.00
2017-08-09T08:10:13.589Z,6676.00
2017-08-09T08:11:13.629Z,17688.00
2017-08-09T08:12:13.645Z,5508.00
2017-08-09T08:13:13.666Z,4948.00
2017-08-09T08:14:13.693Z,6044.00
2017-08-09T08:15:13.720Z,33984.00
2017-08-09T08:16:13.744Z,21056.00
2017-08-09T08:17:13.769Z,6432.00
2017-08-09T08:18:13.797Z,32448.00
2017-08-09T08:19:13.823Z,11308.00
2017-08-09T08:20:13.849Z,14648.00
2017-08-09T08:21:13.875Z,6644.00
2017-08-09T08:22:13.897Z,5576.00
2017-08-09T08:23:13.925Z,5572.00
2017-08-09T08:24:13.955Z,5204.00
2017-08-09T08:25:13.974Z,6272.00
2017-08-09T08:26:14.009Z,7620.00
2017-08-09T08:27:14.029Z,6728.00
2017-08-09T08:28:14.059Z,6276.00
2017-08-09T08:29:14.078Z,6768.00
2017-08-09T08:30:14.100Z,6628.00
2017-08-09T08:31:14.130Z,5948.00
2017-08-09T08:32:14.154Z,5536.00
2017-08-09T08:33:14.182Z,5192.00
2017-08-09T08:34:14.205Z,5032.00
2017-08-09T08:35:14.244Z,5260.00
2017-08-09T08:36:14.256Z,3940.00
2017-08-09T08:37:14.286Z,4360.00
2017-08-09T08:38:14.308Z,4360.00
2017-08-09T08:39:14.332Z,4696.00
2017-08-09T08:40:14.369Z,5700.00
2017-08-09T08:41:14.387Z,5024.00
2017-08-09T08:42:14.410Z,4992.00
2017-08-09T08:43:14.435Z,6036.00
2017-08-09T08:44:14.462Z,6956.00
2017-08-09T08:45:14.496Z,6684.00
2017-08-09T08:46:14.518Z,6880.00
2017-08-09T08:47:14.542Z,5760.00
2017-08-09T08:48:14.562Z,6908.00
2017-08-09T08:49:14.591Z,7272.00
2017-08-09T08:50:14.619Z,7316.00
2017-08-09T08:51:14.640Z,6644.00
2017-08-09T08:52:14.666Z,5664.00
2017-08-09T08:53:14.694Z,5488.00
2017-08-09T08:54:14.717Z,4616.00
2017-08-09T08:55:14.740Z,3836.00
2017-08-09T08:56:14.769Z,3508.00
2017-08-09T08:57:14.792Z,3060.00
2017-08-09T08:58:14.820Z,2812.00
2017-08-09T08:59:14.845Z,2660.00
2017-08-09T09:00:14.870Z,3008.00
2017-08-09T09:01:14.898Z,3556.00
2017-08-09T09:02:14.927Z,3728.00
2017-08-09T09:03:14.952Z,3780.00
2017-08-09T09:04:14.977Z,3360.00
2017-08-09T09:05:15.000Z,3404.00
2017-08-09T09:06:15.022Z,2968.00
2017-08-09T09:07:15.049Z,2844.00
2017-08-09T09:08:15.074Z,3736.00
2017-08-09T09:09:15.098Z,4672.00
2017-08-09T09:10:15.125Z,5004.00
2017-08-09T09:11:15.151Z,5196.00
2017-08-09T09:12:15.173Z,5820.00
2017-08-09T09:13:15.198Z,5832.00
2017-08-09T09:14:15.227Z,6080.00
2017-08-09T09:15:15.253Z,6028.00
2017-08-09T09:16:15.278Z,5932.00
2017-08-09T09:17:15.317Z,5260.00
2017-08-09T09:18:15.327Z,4900.00
2017-08-09T09:19:15.365Z,5204.00
2017-08-09T09:20:15.379Z,4820.00
2017-08-09T09:21:15.404Z,5452.00
2017-08-09T09:22:15.433Z,5796.00
2017-08-09T09:23:15.454Z,5668.00
2017-08-09T09:24:15.488Z,6320.00
2017-08-09T09:25:15.511Z,6340.00
2017-08-09T09:26:15.535Z,6112.00
2017-08-09T09:27:15.554Z,4624.00
2017-08-09T09:28:15.591Z,4572.00
2017-08-09T09:29:15.610Z,4332.00
2017-08-09T09:30:15.634Z,4352.00
2017-08-09T09:31:15.656Z,4380.00
2017-08-09T09:32:15.683Z,3900.00
2017-08-09T09:33:15.708Z,4152.00
2017-08-09T09:34:15.737Z,4416.00
2017-08-09T09:35:15.772Z,5056.00
2017-08-09T09:36:15.792Z,5608.00
2017-08-09T09:37:15.815Z,6236.00
2017-08-09T09:38:15.836Z,6476.00
2017-08-09T09:39:15.862Z,5580.00
2017-08-09T09:40:15.886Z,5056.00
2017-08-09T09:41:15.922Z,4856.00
2017-08-09T09:42:15.937Z,4528.00
2017-08-09T09:43:15.962Z,5036.00
2017-08-09T09:44:15.989Z,5180.00
2017-08-09T09:45:16.015Z,4988.00
2017-08-09T09:46:16.044Z,4624.00
2017-08-09T09:47:16.068Z,4336.00
2017-08-09T09:48:16.094Z,3624.00
2017-08-09T09:49:16.115Z,3736.00
2017-08-09T09:50:16.142Z,3732.00
2017-08-09T09:51:16.177Z,3404.00
2017-08-09T09:52:16.331Z,3304.00
2017-08-09T09:53:16.221Z,3276.00
2017-08-09T09:54:16.242Z,3372.00
2017-08-09T09:55:16.270Z,3692.00
2017-08-09T09:56:16.294Z,3860.00
2017-08-09T09:57:16.319Z,3848.00
2017-08-09T09:58:16.346Z,3980.00
2017-08-09T09:59:16.370Z,4000.00
2017-08-09T10:00:16.400Z,4256.00
2017-08-09T10:01:16.424Z,4284.00
2017-08-09T10:02:16.449Z,4832.00
2017-08-09T10:03:16.474Z,4700.00
2017-08-09T10:04:16.501Z,4336.00
2017-08-09T10:05:16.521Z,4476.00
2017-08-09T10:06:16.546Z,4628.00
2017-08-09T10:07:16.577Z,4212.00
2017-08-09T10:08:16.600Z,3396.00
2017-08-09T10:09:16.627Z,3064.00
2017-08-09T10:10:16.650Z,3136.00
2017-08-09T10:11:16.675Z,2660.00
2017-08-09T10:12:16.700Z,2628.00
2017-08-09T10:13:16.725Z,2868.00
2017-08-09T10:14:16.757Z,3228.00
2017-08-09T10:15:16.776Z,3132.00
2017-08-09T10:16:16.800Z,3312.00
2017-08-09T10:17:16.830Z,3308.00
2017-08-09T10:18:16.851Z,3172.00
2017-08-09T10:19:16.879Z,2936.00
2017-08-09T10:20:16.912Z,2836.00
2017-08-09T10:21:16.932Z,2576.00
2017-08-09T10:22:16.950Z,2444.00
2017-08-09T10:23:16.985Z,2608.00
2017-08-09T10:24:17.013Z,2820.00
2017-08-09T10:25:17.030Z,2868.00
2017-08-09T10:26:17.055Z,3308.00
2017-08-09T10:27:17.079Z,3392.00
2017-08-09T10:28:17.105Z,3184.00
2017-08-09T10:29:17.136Z,3148.00
2017-08-09T10:30:17.158Z,2816.00
2017-08-09T10:31:17.183Z,2832.00
2017-08-09T10:32:17.207Z,2772.00
2017-08-09T10:33:17.242Z,2636.00
2017-08-09T10:34:17.254Z,2544.00
2017-08-09T10:35:17.282Z,2592.00
2017-08-09T10:36:17.309Z,2612.00
2017-08-09T10:37:17.335Z,2676.00
2017-08-09T10:38:17.371Z,2928.00
2017-08-09T10:39:17.380Z,2936.00
2017-08-09T10:40:17.413Z,2912.00
2017-08-09T10:41:17.432Z,3096.00
2017-08-09T10:42:17.461Z,3156.00
2017-08-09T10:43:17.483Z,3420.00
2017-08-09T10:44:17.514Z,3688.00
2017-08-09T10:45:17.536Z,3784.00
2017-08-09T10:46:17.558Z,3972.00
2017-08-09T10:47:17.592Z,4252.00
2017-08-09T10:48:17.612Z,4436.00
2017-08-09T10:49:17.638Z,4676.00
2017-08-09T10:50:17.659Z,4756.00
2017-08-09T10:51:17.685Z,4976.00
2017-08-09T10:52:17.714Z,4632.00
2017-08-09T10:53:17.746Z,4080.00
2017-08-09T10:54:17.761Z,3732.00
2017-08-09T10:55:17.790Z,3420.00
2017-08-09T10:56:17.817Z,3048.00
2017-08-09T10:57:17.838Z,2800.00
2017-08-09T10:58:17.871Z,2596.00
2017-08-09T10:59:17.887Z,2424.00
2017-08-09T11:00:17.917Z,2304.00
2017-08-09T11:01:17.939Z,2160.00
2017-08-09T11:02:17.965Z,2064.00
2017-08-09T11:03:17.996Z,2044.00
2017-08-09T11:04:18.015Z,2232.00
2017-08-09T11:05:18.041Z,2236.00
2017-08-09T11:06:18.062Z,2272.00
2017-08-09T11:07:18.167Z,2280.00
2017-08-09T11:08:18.115Z,2416.00
2017-08-09T11:09:18.138Z,2300.00
2017-08-09T11:10:18.165Z,2264.00
2017-08-09T11:11:18.192Z,2208.00
2017-08-09T11:12:18.221Z,2320.00
2017-08-09T11:13:18.244Z,2636.00
2017-08-09T11:14:18.278Z,3020.00
2017-08-09T11:15:18.293Z,3016.00
2017-08-09T11:16:18.317Z,3384.00
2017-08-09T11:17:18.353Z,3296.00
2017-08-09T11:18:18.366Z,2944.00
2017-08-09T11:19:18.392Z,2700.00
2017-08-09T11:20:18.417Z,2684.00
2017-08-09T11:21:18.443Z,2660.00
2017-08-09T11:22:18.467Z,2896.00
2017-08-09T11:23:18.495Z,3068.00
2017-08-09T11:24:18.521Z,3204.00
2017-08-09T11:25:18.549Z,3180.00
2017-08-09T11:26:18.573Z,3288.00
2017-08-09T11:27:18.597Z,2944.00
2017-08-09T11:28:18.624Z,2632.00
2017-08-09T11:29:18.676Z,2572.00
2017-08-09T11:30:18.674Z,2356.00
2017-08-09T11:31:18.697Z,2168.00
2017-08-09T11:32:18.738Z,2088.00
2017-08-09T11:33:18.747Z,2120.00
2017-08-09T11:34:18.770Z,2160.00
2017-08-09T11:35:18.798Z,2308.00
2017-08-09T11:36:18.832Z,2284.00
2017-08-09T11:37:18.848Z,2024.00
2017-08-09T11:38:18.873Z,2048.00
2017-08-09T11:39:18.902Z,2096.00
2017-08-09T11:40:18.932Z,2196.00
2017-08-09T11:41:18.952Z,2408.00
2017-08-09T11:42:18.973Z,2616.00
2017-08-09T11:43:18.999Z,2624.00
2017-08-09T11:44:19.027Z,2356.00
2017-08-09T11:45:19.049Z,2248.00
2017-08-09T11:46:19.089Z,2036.00
2017-08-09T11:47:19.106Z,2076.00
2017-08-09T11:48:19.129Z,2420.00
2017-08-09T11:49:19.148Z,2736.00
2017-08-09T11:50:19.173Z,2668.00
2017-08-09T11:51:19.226Z,3064.00
2017-08-09T11:52:19.234Z,3588.00
2017-08-09T11:53:19.439Z,3432.00
2017-08-09T11:54:19.276Z,3244.00
2017-08-09T11:55:19.302Z,3376.00
2017-08-09T11:56:19.326Z,3176.00
2017-08-09T11:57:19.369Z,2808.00
2017-08-09T11:58:19.380Z,2484.00
2017-08-09T11:59:19.404Z,2164.00
2017-08-09T12:00:19.431Z,1992.00
2017-08-09T12:01:19.455Z,1928.00
2017-08-09T12:02:19.483Z,2196.00
2017-08-09T12:03:19.504Z,2540.00
2017-08-09T12:04:19.534Z,2820.00
2017-08-09T12:05:19.556Z,3052.00
2017-08-09T12:06:19.576Z,3188.00
2017-08-09T12:07:19.603Z,3168.00
2017-08-09T12:08:19.631Z,2912.00
2017-08-09T12:09:19.655Z,2636.00
2017-08-09T12:10:19.680Z,2392.00
2017-08-09T12:11:19.706Z,2176.00
2017-08-09T12:12:19.736Z,1896.00
2017-08-09T12:13:19.753Z,1752.00
2017-08-09T12:14:19.779Z,1600.00
2017-08-09T12:15:19.807Z,1520.00
2017-08-09T12:16:19.836Z,1468.00
2017-08-09T12:17:19.861Z,1488.00
2017-08-09T12:18:19.886Z,1556.00
2017-08-09T12:19:20.040Z,1600.00
2017-08-09T12:20:19.932Z,1664.00
2017-08-09T12:21:19.959Z,1700.00
2017-08-09T12:22:19.982Z,1676.00
2017-08-09T12:23:20.008Z,1696.00
2017-08-09T12:24:20.033Z,1752.00
2017-08-09T12:25:20.059Z,1832.00
2017-08-09T12:26:20.088Z,1816.00
2017-08-09T12:27:20.110Z,1756.00